createdAt,value
2022-12-03T00:01:42.850Z,85.22
2022-12-03T00:04:44.703Z,85.17
2022-12-03T00:07:59.870Z,85.94
2022-12-03T00:11:14.806Z,85.62
2022-12-03T00:14:23.424Z,85.73
2022-12-03T00:17:31.862Z,85.07
2022-12-03T00:20:40.486Z,85.43
2022-12-03T00:23:48.870Z,85.81
2022-12-03T00:26:57.516Z,85.77
2022-12-03T00:30:05.974Z,85.37
2022-12-03T00:33:28.871Z,86.14
2022-12-03T00:36:30.725Z,86.05
2022-12-03T00:39:45.990Z,86.59
2022-12-03T00:42:54.138Z,87.17
2022-12-03T00:46:08.980Z,87.40
2022-12-03T00:49:10.918Z,87.08
2022-12-03T00:52:25.926Z,87.41
2022-12-03T00:55:33.897Z,88.07
2022-12-03T00:58:42.466Z,88.04
2022-12-03T01:01:50.966Z,87.72
2022-12-03T01:04:59.741Z,87.75
2022-12-03T01:08:14.957Z,87.76
2022-12-03T01:11:23.630Z,87.42
2022-12-03T01:14:37.889Z,87.40
2022-12-03T01:17:39.693Z,87.25
2022-12-03T01:20:55.042Z,87.44
2022-12-03T01:24:04.299Z,87.58
2022-12-03T01:27:18.926Z,88.19
2022-12-03T01:30:26.934Z,88.02
2022-12-03T01:33:42.206Z,87.85
2022-12-03T01:36:50.936Z,87.71
2022-12-03T01:39:59.827Z,87.95
2022-12-03T01:43:14.929Z,87.55
2022-12-03T01:46:30.559Z,88.12
2022-12-03T01:49:56.954Z,86.98
2022-12-03T01:53:11.985Z,86.59
2022-12-03T01:56:15.725Z,87.17
2022-12-03T01:59:38.920Z,86.91
2022-12-03T02:02:57.930Z,86.62
2022-12-03T02:06:05.898Z,86.64
2022-12-03T02:09:14.564Z,86.88
2022-12-03T02:12:44.988Z,86.45
2022-12-03T02:15:54.000Z,86.40
2022-12-03T02:19:10.951Z,86.52
2022-12-03T02:22:28.625Z,86.53
2022-12-03T02:25:43.937Z,86.59
2022-12-03T02:28:52.937Z,86.03
2022-12-03T02:32:14.929Z,86.63
2022-12-03T02:35:33.943Z,86.36
2022-12-03T02:38:36.292Z,85.94
2022-12-03T02:41:50.978Z,85.91
2022-12-03T02:44:53.947Z,85.76
2022-12-03T02:48:14.043Z,85.88
2022-12-03T02:51:22.949Z,85.24
2022-12-03T02:54:31.626Z,85.24
2022-12-03T02:57:43.030Z,84.75
2022-12-03T03:00:53.680Z,85.14
2022-12-03T03:04:03.003Z,85.07
2022-12-03T03:07:11.815Z,85.34
2022-12-03T03:10:22.969Z,85.54
2022-12-03T03:13:39.974Z,85.52
2022-12-03T03:16:55.014Z,85.27
2022-12-03T03:20:04.001Z,85.78
2022-12-03T03:23:18.156Z,85.71
2022-12-03T03:26:32.971Z,85.10
2022-12-03T03:29:35.642Z,86.09
2022-12-03T03:32:50.011Z,86.12
2022-12-03T03:35:59.342Z,85.55
2022-12-03T03:39:07.971Z,85.50
2022-12-03T03:42:17.491Z,85.06
2022-12-03T03:45:29.424Z,84.86
2022-12-03T03:48:38.836Z,84.99
2022-12-03T03:51:46.989Z,85.92
2022-12-03T03:54:55.886Z,85.61
2022-12-03T03:58:05.067Z,85.66
2022-12-03T04:01:14.649Z,85.94
2022-12-03T04:04:28.083Z,85.90
2022-12-03T04:07:36.657Z,85.73
2022-12-03T04:10:45.061Z,85.17
2022-12-03T04:13:53.682Z,84.88
2022-12-03T04:17:05.182Z,85.38
2022-12-03T04:20:13.789Z,85.18
2022-12-03T04:23:24.990Z,85.48
2022-12-03T04:26:37.808Z,85.70
2022-12-03T04:29:46.070Z,85.88
2022-12-03T04:33:01.316Z,85.92
2022-12-03T04:36:10.010Z,85.39
2022-12-03T04:39:25.194Z,85.64
2022-12-03T04:42:27.103Z,85.59
2022-12-03T04:45:42.156Z,85.53
2022-12-03T04:48:51.063Z,85.90
2022-12-03T04:52:07.029Z,85.54
2022-12-03T04:55:16.081Z,85.33
2022-12-03T04:58:24.660Z,85.29
2022-12-03T05:01:33.130Z,85.75
2022-12-03T05:04:48.065Z,85.66
2022-12-03T05:07:49.950Z,85.87
2022-12-03T05:11:05.166Z,86.34
2022-12-03T05:14:07.330Z,86.60
2022-12-03T05:17:22.125Z,86.96
2022-12-03T05:20:30.922Z,87.05
2022-12-03T05:23:39.095Z,87.31
2022-12-03T05:26:47.666Z,87.73
2022-12-03T05:29:56.089Z,87.70
2022-12-03T05:33:11.351Z,87.20
2022-12-03T05:36:26.128Z,87.45
2022-12-03T05:39:34.790Z,87.30
2022-12-03T05:42:43.062Z,87.02
2022-12-03T05:45:52.063Z,86.24
2022-12-03T05:49:00.099Z,85.84
2022-12-03T05:52:15.242Z,85.70
2022-12-03T05:55:17.982Z,86.01
2022-12-03T05:58:33.106Z,86.40
2022-12-03T06:01:41.627Z,86.67
2022-12-03T06:04:56.302Z,86.26
2022-12-03T06:07:58.337Z,85.97
2022-12-03T06:11:13.121Z,85.54
2022-12-03T06:14:21.865Z,85.68
2022-12-03T06:17:30.125Z,85.75
2022-12-03T06:20:46.182Z,85.10
2022-12-03T06:23:54.114Z,85.19
2022-12-03T06:27:09.110Z,84.63
2022-12-03T06:30:12.860Z,84.91
2022-12-03T06:33:34.135Z,84.95
2022-12-03T06:36:35.998Z,85.49
2022-12-03T06:39:51.311Z,85.58
2022-12-03T06:42:53.227Z,85.94
2022-12-03T06:46:09.218Z,85.43
2022-12-03T06:49:11.082Z,85.87
2022-12-03T06:52:26.210Z,86.04
2022-12-03T06:55:34.958Z,85.93
2022-12-03T06:58:43.175Z,85.63
2022-12-03T07:01:58.197Z,85.42
2022-12-03T07:05:00.120Z,85.16
2022-12-03T07:08:15.174Z,84.91
2022-12-03T07:11:17.459Z,84.42
2022-12-03T07:14:32.214Z,83.83
2022-12-03T07:17:42.186Z,84.35
2022-12-03T07:20:57.134Z,83.87
2022-12-03T07:23:58.953Z,83.66
2022-12-03T07:27:14.235Z,83.45
2022-12-03T07:30:23.278Z,83.35
2022-12-03T07:33:38.437Z,82.79
2022-12-03T07:36:47.231Z,82.85
2022-12-03T07:39:55.821Z,82.80
2022-12-03T07:43:04.162Z,83.21
2022-12-03T07:46:12.887Z,83.30
2022-12-03T07:49:21.238Z,82.71
2022-12-03T07:52:29.714Z,83.39
2022-12-03T07:55:45.241Z,83.69
2022-12-03T07:58:54.213Z,83.12
2022-12-03T08:02:03.885Z,82.99
2022-12-03T08:05:13.206Z,82.45
2022-12-03T08:08:22.859Z,81.89
2022-12-03T08:11:39.187Z,81.40
2022-12-03T08:14:47.198Z,81.19
2022-12-03T08:17:59.096Z,81.35
2022-12-03T08:21:07.150Z,81.18
2022-12-03T08:24:25.262Z,80.95
2022-12-03T08:27:27.123Z,80.69
2022-12-03T08:30:42.190Z,81.12
2022-12-03T08:34:01.197Z,81.18
2022-12-03T08:37:23.190Z,81.07
2022-12-03T08:40:41.218Z,81.30
2022-12-03T08:43:56.195Z,81.01
2022-12-03T08:47:15.982Z,81.08
2022-12-03T08:50:37.242Z,81.13
2022-12-03T08:54:01.297Z,81.31
2022-12-03T08:57:24.787Z,81.19
2022-12-03T09:00:39.320Z,80.98
2022-12-03T09:03:51.058Z,80.33
2022-12-03T09:07:06.282Z,79.38
2022-12-03T09:10:22.398Z,78.39
2022-12-03T09:13:24.303Z,78.55
2022-12-03T09:16:39.396Z,77.99
2022-12-03T09:19:45.706Z,77.58
2022-12-03T09:23:01.234Z,76.96
2022-12-03T09:26:09.267Z,76.93
2022-12-03T09:29:18.087Z,76.36
2022-12-03T09:32:26.332Z,76.26
2022-12-03T09:35:41.646Z,75.60
2022-12-03T09:38:56.258Z,75.88
2022-12-03T09:42:05.278Z,75.73
2022-12-03T09:45:21.778Z,75.96
2022-12-03T09:48:23.830Z,75.79
2022-12-03T09:51:42.303Z,75.39
2022-12-03T09:54:51.357Z,74.60
2022-12-03T09:57:59.918Z,73.84
2022-12-03T10:01:08.396Z,73.21
2022-12-03T10:04:18.220Z,72.52
2022-12-03T10:07:27.417Z,71.98
2022-12-03T10:10:36.959Z,70.82
2022-12-03T10:13:46.314Z,69.81
2022-12-03T10:16:55.652Z,69.55
2022-12-03T10:20:11.295Z,70.55
2022-12-03T10:23:30.341Z,70.84
2022-12-03T10:26:46.301Z,70.17
2022-12-03T10:30:03.574Z,69.04
2022-12-03T10:33:20.420Z,68.40
2022-12-03T10:36:28.812Z,69.70
2022-12-03T10:39:37.334Z,70.59
2022-12-03T10:42:45.953Z,70.37
2022-12-03T10:46:16.463Z,70.46
2022-12-03T10:49:24.928Z,69.77
2022-12-03T10:52:40.340Z,69.27
2022-12-03T10:55:50.630Z,69.99
2022-12-03T10:59:00.998Z,69.80
2022-12-03T11:02:14.354Z,69.05
2022-12-03T11:05:26.838Z,67.96
2022-12-03T11:08:41.406Z,68.45
2022-12-03T11:11:56.366Z,68.42
2022-12-03T11:14:58.981Z,67.62
2022-12-03T11:18:13.362Z,67.75
2022-12-03T11:21:22.381Z,66.53
2022-12-03T11:24:39.410Z,67.95
2022-12-03T11:28:34.363Z,68.22
2022-12-03T11:31:46.055Z,68.56
2022-12-03T11:35:01.457Z,68.77
2022-12-03T11:38:36.491Z,68.98
2022-12-03T11:42:14.834Z,69.61
2022-12-03T11:45:29.377Z,68.56
2022-12-03T11:48:45.243Z,68.20
2022-12-03T11:51:54.387Z,69.32
2022-12-03T11:55:22.360Z,69.45
2022-12-03T11:58:31.689Z,69.44
2022-12-03T12:01:47.404Z,69.78
2022-12-03T12:04:55.991Z,69.33
2022-12-03T12:08:05.524Z,69.61
2022-12-03T12:11:35.413Z,69.23
2022-12-03T12:14:43.360Z,68.84
2022-12-03T12:17:58.373Z,69.14
2022-12-03T12:21:26.940Z,69.33
2022-12-03T12:25:02.515Z,69.20
2022-12-03T12:28:17.407Z,69.50
2022-12-03T12:31:25.472Z,69.45
2022-12-03T12:34:49.378Z,69.79
2022-12-03T12:38:00.181Z,70.00
2022-12-03T12:41:16.400Z,69.97
2022-12-03T12:44:31.438Z,69.70
2022-12-03T12:47:35.643Z,69.49
2022-12-03T12:50:54.488Z,70.61
2022-12-03T12:53:57.319Z,70.85
2022-12-03T12:57:20.439Z,71.54
2022-12-03T13:00:23.762Z,72.17
2022-12-03T13:03:41.482Z,72.52
2022-12-03T13:06:53.469Z,73.15
2022-12-03T13:10:02.493Z,72.57
2022-12-03T13:13:29.406Z,72.49
2022-12-03T13:16:32.648Z,72.34
2022-12-03T13:19:52.172Z,72.39
2022-12-03T13:22:57.903Z,72.50
2022-12-03T13:26:36.538Z,72.10
2022-12-03T13:29:40.776Z,71.73
2022-12-03T13:32:55.437Z,71.46
2022-12-03T13:36:23.450Z,71.21
2022-12-03T13:39:37.443Z,71.14
2022-12-03T13:42:46.198Z,72.31
2022-12-03T13:46:00.546Z,72.67
2022-12-03T13:49:09.515Z,72.56
2022-12-03T13:52:30.462Z,72.32
2022-12-03T13:55:44.667Z,72.13
2022-12-03T13:58:53.483Z,71.98
2022-12-03T14:02:08.604Z,71.70
2022-12-03T14:05:10.571Z,72.54
2022-12-03T14:08:25.538Z,72.14
2022-12-03T14:11:34.098Z,72.37
2022-12-03T14:14:48.669Z,72.21
2022-12-03T14:17:50.490Z,72.71
2022-12-03T14:21:05.500Z,72.27
2022-12-03T14:24:14.487Z,72.85
2022-12-03T14:27:23.515Z,73.05
2022-12-03T14:30:32.573Z,72.87
2022-12-03T14:33:54.542Z,73.01
2022-12-03T14:37:09.467Z,72.91
2022-12-03T14:40:21.723Z,73.13
2022-12-03T14:43:36.507Z,73.14
2022-12-03T14:46:45.127Z,73.03
2022-12-03T14:49:59.606Z,73.24
2022-12-03T14:53:14.556Z,74.50
2022-12-03T14:56:29.582Z,74.46
2022-12-03T14:59:31.655Z,74.45
2022-12-03T15:02:46.573Z,74.48
2022-12-03T15:06:01.593Z,74.53
2022-12-03T15:09:03.922Z,74.66
2022-12-03T15:12:18.634Z,74.60
2022-12-03T15:15:20.586Z,74.72
2022-12-03T15:18:35.617Z,74.96
2022-12-03T15:21:43.537Z,75.13
2022-12-03T15:24:58.535Z,74.66
2022-12-03T15:28:07.626Z,74.91
2022-12-03T15:31:16.147Z,75.40
2022-12-03T15:34:30.595Z,75.58
2022-12-03T15:37:38.522Z,76.26
2022-12-03T15:40:53.562Z,75.88
2022-12-03T15:43:58.068Z,76.44
2022-12-03T15:47:12.566Z,76.47
2022-12-03T15:50:27.624Z,76.15
2022-12-03T15:53:36.301Z,76.34
2022-12-03T15:56:44.533Z,76.67
2022-12-03T15:59:59.652Z,76.66
2022-12-03T16:03:01.587Z,77.06
2022-12-03T16:06:16.610Z,77.09
2022-12-03T16:09:23.739Z,76.92
2022-12-03T16:12:41.557Z,76.84
2022-12-03T16:15:49.724Z,77.32
2022-12-03T16:19:04.705Z,77.35
2022-12-03T16:22:13.711Z,77.56
2022-12-03T16:25:22.269Z,78.24
2022-12-03T16:28:30.642Z,78.17
2022-12-03T16:31:39.451Z,78.13
2022-12-03T16:34:47.686Z,78.34
2022-12-03T16:37:56.342Z,78.46
2022-12-03T16:41:04.658Z,78.48
2022-12-03T16:44:13.259Z,78.55
2022-12-03T16:47:21.646Z,77.90
2022-12-03T16:50:30.660Z,78.19
2022-12-03T16:53:45.697Z,78.05
2022-12-03T16:56:47.510Z,77.80
2022-12-03T17:00:02.625Z,78.16
2022-12-03T17:03:05.895Z,78.20
2022-12-03T17:06:20.667Z,78.39
2022-12-03T17:09:22.914Z,78.69
2022-12-03T17:13:07.694Z,78.96
2022-12-03T17:16:05.674Z,78.99
2022-12-03T17:19:14.642Z,78.86
2022-12-03T17:22:22.674Z,79.52
2022-12-03T17:25:31.301Z,79.22
2022-12-03T17:28:45.654Z,79.19
2022-12-03T17:32:00.752Z,78.92
2022-12-03T17:35:10.310Z,79.25
2022-12-03T17:38:24.650Z,79.37
2022-12-03T17:41:33.361Z,79.19
2022-12-03T17:44:41.716Z,78.71
2022-12-03T17:47:56.731Z,78.61
2022-12-03T17:51:05.363Z,78.75
2022-12-03T17:54:19.658Z,78.83
2022-12-03T17:57:21.569Z,78.88
2022-12-03T18:00:36.682Z,78.63
2022-12-03T18:03:38.561Z,78.79
2022-12-03T18:06:57.503Z,79.10
2022-12-03T18:10:15.727Z,79.29
2022-12-03T18:13:23.671Z,79.17
2022-12-03T18:16:32.726Z,79.67
2022-12-03T18:19:41.322Z,79.78
2022-12-03T18:22:49.417Z,79.88
2022-12-03T18:25:57.737Z,79.64
2022-12-03T18:29:12.776Z,79.63
2022-12-03T18:32:28.146Z,79.78
2022-12-03T18:35:50.685Z,79.62
2022-12-03T18:38:54.680Z,79.78
2022-12-03T18:42:22.718Z,80.04
2022-12-03T18:45:30.682Z,80.18
2022-12-03T18:48:46.717Z,80.22
2022-12-03T18:51:50.396Z,80.03
2022-12-03T18:55:06.724Z,80.14
2022-12-03T18:58:08.526Z,80.19
2022-12-03T19:01:27.735Z,80.42
2022-12-03T19:04:36.350Z,80.73
2022-12-03T19:07:44.845Z,80.74
2022-12-03T19:11:02.742Z,80.24
2022-12-03T19:14:04.883Z,80.47
2022-12-03T19:17:19.726Z,80.90
2022-12-03T19:20:21.749Z,80.96
2022-12-03T19:23:37.723Z,81.02
2022-12-03T19:26:39.534Z,81.30
2022-12-03T19:29:56.018Z,81.29
2022-12-03T19:33:17.846Z,81.26
2022-12-03T19:36:33.068Z,81.24
2022-12-03T19:39:41.915Z,80.87
2022-12-03T19:42:51.178Z,80.75
2022-12-03T19:46:00.804Z,80.86
2022-12-03T19:49:16.773Z,80.94
2022-12-03T19:52:18.637Z,80.68
2022-12-03T19:55:33.758Z,80.65
2022-12-03T19:58:36.841Z,80.65
2022-12-03T20:01:51.906Z,80.69
2022-12-03T20:05:00.772Z,80.63
2022-12-03T20:08:15.851Z,80.64
2022-12-03T20:11:27.492Z,80.19
2022-12-03T20:14:35.803Z,80.16
2022-12-03T20:17:50.848Z,80.04
2022-12-03T20:20:57.294Z,80.04
2022-12-03T20:24:12.877Z,79.87
2022-12-03T20:27:18.312Z,79.72
2022-12-03T20:30:36.822Z,80.27
2022-12-03T20:33:49.191Z,79.99
2022-12-03T20:37:03.884Z,80.40
2022-12-03T20:40:06.390Z,80.14
2022-12-03T20:43:21.870Z,79.82
2022-12-03T20:46:32.895Z,79.94
2022-12-03T20:49:41.446Z,79.96
2022-12-03T20:53:22.591Z,80.00
2022-12-03T20:56:32.901Z,80.35
2022-12-03T20:59:47.855Z,80.15
2022-12-03T21:03:02.828Z,80.08
2022-12-03T21:06:12.685Z,80.07
2022-12-03T21:09:20.847Z,80.13
2022-12-03T21:12:29.602Z,80.38
2022-12-03T21:15:37.847Z,80.40
2022-12-03T21:18:47.042Z,80.25
2022-12-03T21:21:55.810Z,80.54
2022-12-03T21:25:04.767Z,80.56
2022-12-03T21:28:19.886Z,80.73
2022-12-03T21:31:28.478Z,80.44
2022-12-03T21:34:36.907Z,80.79
2022-12-03T21:37:58.847Z,81.02
2022-12-03T21:41:14.818Z,81.08
2022-12-03T21:44:29.904Z,81.41
2022-12-03T21:47:38.487Z,80.93
2022-12-03T21:50:46.963Z,81.02
2022-12-03T21:53:55.466Z,80.83
2022-12-03T21:57:09.914Z,80.81
2022-12-03T22:00:18.890Z,80.88
2022-12-03T22:03:33.895Z,80.88
2022-12-03T22:06:35.667Z,80.91
2022-12-03T22:09:50.882Z,80.70
2022-12-03T22:12:52.671Z,80.62
2022-12-03T22:16:11.919Z,80.78
2022-12-03T22:19:19.887Z,81.16
2022-12-03T22:22:34.866Z,81.69
2022-12-03T22:25:36.630Z,81.47
2022-12-03T22:28:54.907Z,82.00
2022-12-03T22:32:10.941Z,81.65
2022-12-03T22:35:19.539Z,81.91
2022-12-03T22:38:35.875Z,81.95
2022-12-03T22:41:43.876Z,81.57
2022-12-03T22:44:52.450Z,81.87
2022-12-03T22:48:06.889Z,81.89
2022-12-03T22:51:26.903Z,82.13
2022-12-03T22:54:35.467Z,81.84
2022-12-03T22:57:50.950Z,81.71
2022-12-03T23:01:03.306Z,81.74
2022-12-03T23:04:18.978Z,82.14
2022-12-03T23:07:27.587Z,81.73
2022-12-03T23:10:36.010Z,82.15
2022-12-03T23:13:45.151Z,82.33
2022-12-03T23:16:53.935Z,82.64
2022-12-03T23:20:08.953Z,82.93
2022-12-03T23:23:17.911Z,82.79
2022-12-03T23:26:26.822Z,82.70
2022-12-03T23:29:34.934Z,82.76
2022-12-03T23:32:43.621Z,82.95
2022-12-03T23:35:57.950Z,82.72
2022-12-03T23:39:06.610Z,82.56
2022-12-03T23:42:14.960Z,82.80
2022-12-03T23:45:29.951Z,82.78
2022-12-03T23:48:32.196Z,83.15
2022-12-03T23:51:47.921Z,83.50
2022-12-03T23:55:02.913Z,83.60
2022-12-03T23:58:13.910Z,83.69
